AAY426 KCVG-KPIE
Flight info
| Callsign | AAY426 |
|---|---|
| Flight time | N/A |
| Altitude | 35000 |
| Route | KENLN6 SHIPR VXV/N0453F360 THRSR HONID BANGZ2 |
| Aircraft | A320/M-SDE3FGHIRWY/LB1 |
Departure
| Time | N/A |
|---|---|
| Airport | Cincinnati Northern Kentucky International Airport (KCVG) |
Arrival
| Time | 2026-05-03 21:53 |
|---|---|
| Airport | St. Petersburg Clearwater International Airport (KPIE) |
| Time | Latitude | Longitude | Altitude | Speed | Heading |
|---|---|---|---|---|---|
| 2026-05-03 21:06 | 31.25737 | -84.39536 | 36184 ft | 405 kts | 190° |
| 2026-05-03 21:07 | 31.20149 | -84.39525 | 36120 ft | 400 kts | 191° |
| 2026-05-03 21:07 | 31.14584 | -84.39578 | 36117 ft | 400 kts | 191° |
| 2026-05-03 21:08 | 31.09042 | -84.39616 | 36115 ft | 402 kts | 191° |
| 2026-05-03 21:08 | 31.03452 | -84.39626 | 35576 ft | 401 kts | 191° |
| 2026-05-03 21:09 | 31.00662 | -84.39627 | 35229 ft | 402 kts | 191° |
| 2026-05-03 21:09 | 30.97857 | -84.39628 | 35116 ft | 404 kts | 191° |
| 2026-05-03 21:09 | 30.92203 | -84.39633 | 35146 ft | 407 kts | 191° |
| 2026-05-03 21:10 | 30.86536 | -84.39637 | 35146 ft | 407 kts | 191° |
| 2026-05-03 21:10 | 30.80876 | -84.39640 | 35146 ft | 406 kts | 191° |
| 2026-05-03 21:11 | 30.75262 | -84.39643 | 35146 ft | 406 kts | 191° |
| 2026-05-03 21:11 | 30.69607 | -84.39651 | 35148 ft | 406 kts | 191° |
| 2026-05-03 21:12 | 30.63957 | -84.39658 | 35147 ft | 406 kts | 191° |
| 2026-05-03 21:12 | 30.58303 | -84.39668 | 35146 ft | 406 kts | 191° |
| 2026-05-03 21:13 | 30.52650 | -84.39680 | 35146 ft | 407 kts | 191° |
| 2026-05-03 21:13 | 30.47033 | -84.39685 | 35139 ft | 406 kts | 191° |
| 2026-05-03 21:14 | 30.41385 | -84.39698 | 35128 ft | 406 kts | 191° |
| 2026-05-03 21:14 | 30.35678 | -84.39090 | 35129 ft | 425 kts | 178° |
| 2026-05-03 21:15 | 30.32822 | -84.38011 | 35130 ft | 440 kts | 168° |
| 2026-05-03 21:15 | 30.30057 | -84.36366 | 35130 ft | 455 kts | 159° |
| 2026-05-03 21:15 | 30.27462 | -84.34169 | 35127 ft | 470 kts | 150° |
| 2026-05-03 21:15 | 30.24980 | -84.31696 | 35130 ft | 471 kts | 150° |
| 2026-05-03 21:16 | 30.20031 | -84.26788 | 34872 ft | 472 kts | 151° |
| 2026-05-03 21:16 | 30.17535 | -84.24320 | 34622 ft | 472 kts | 151° |
| 2026-05-03 21:16 | 30.15038 | -84.21858 | 34373 ft | 473 kts | 150° |
| 2026-05-03 21:17 | 30.12533 | -84.19391 | 34123 ft | 473 kts | 150° |
| 2026-05-03 21:17 | 30.10874 | -84.17756 | 33958 ft | 474 kts | 150° |
| 2026-05-03 21:17 | 30.07518 | -84.14443 | 33626 ft | 475 kts | 150° |
| 2026-05-03 21:17 | 30.05008 | -84.11963 | 33373 ft | 476 kts | 150° |
| 2026-05-03 21:18 | 30.02491 | -84.09479 | 33123 ft | 476 kts | 150° |
| 2026-05-03 21:18 | 29.99971 | -84.06997 | 32876 ft | 477 kts | 150° |
| 2026-05-03 21:18 | 29.97482 | -84.04546 | 32631 ft | 477 kts | 150° |
| 2026-05-03 21:18 | 29.94960 | -84.02065 | 32380 ft | 477 kts | 150° |
| 2026-05-03 21:19 | 29.92436 | -83.99584 | 32139 ft | 477 kts | 150° |
| 2026-05-03 21:19 | 29.89908 | -83.97104 | 31877 ft | 477 kts | 150° |
| 2026-05-03 21:19 | 29.87386 | -83.94628 | 31626 ft | 475 kts | 149° |
| 2026-05-03 21:19 | 29.84876 | -83.92161 | 31376 ft | 474 kts | 149° |
| 2026-05-03 21:20 | 29.82333 | -83.89774 | 31121 ft | 465 kts | 155° |
| 2026-05-03 21:20 | 29.79619 | -83.87859 | 30873 ft | 454 kts | 161° |
| 2026-05-03 21:20 | 29.76906 | -83.86119 | 30624 ft | 451 kts | 161° |
| 2026-05-03 21:20 | 29.74183 | -83.84367 | 30384 ft | 450 kts | 161° |
| 2026-05-03 21:21 | 29.71460 | -83.82609 | 30130 ft | 448 kts | 161° |
| 2026-05-03 21:21 | 29.68744 | -83.80855 | 29879 ft | 446 kts | 161° |
| 2026-05-03 21:21 | 29.66042 | -83.79111 | 29629 ft | 445 kts | 161° |
| 2026-05-03 21:21 | 29.63349 | -83.77375 | 29378 ft | 443 kts | 161° |
| 2026-05-03 21:22 | 29.60664 | -83.75646 | 29127 ft | 442 kts | 161° |
| 2026-05-03 21:22 | 29.57986 | -83.73924 | 28876 ft | 440 kts | 161° |
| 2026-05-03 21:22 | 29.55315 | -83.72211 | 28625 ft | 440 kts | 161° |
| 2026-05-03 21:22 | 29.52682 | -83.70521 | 28378 ft | 439 kts | 160° |
| 2026-05-03 21:23 | 29.50024 | -83.68816 | 28127 ft | 437 kts | 160° |
| 2026-05-03 21:23 | 29.47376 | -83.67119 | 27875 ft | 435 kts | 160° |
| 2026-05-03 21:23 | 29.44740 | -83.65431 | 27625 ft | 434 kts | 160° |
| 2026-05-03 21:23 | 29.42109 | -83.63749 | 27373 ft | 432 kts | 160° |
| 2026-05-03 21:24 | 29.39486 | -83.62071 | 27123 ft | 431 kts | 160° |
| 2026-05-03 21:24 | 29.36873 | -83.60396 | 26869 ft | 430 kts | 160° |
| 2026-05-03 21:24 | 29.34221 | -83.58905 | 26620 ft | 419 kts | 167° |
| 2026-05-03 21:24 | 29.31487 | -83.57865 | 26367 ft | 411 kts | 173° |
| 2026-05-03 21:25 | 29.28779 | -83.56959 | 26121 ft | 411 kts | 173° |
| 2026-05-03 21:25 | 29.26037 | -83.56041 | 25870 ft | 410 kts | 173° |
| 2026-05-03 21:25 | 29.23305 | -83.55121 | 25620 ft | 409 kts | 172° |
| 2026-05-03 21:25 | 29.20581 | -83.54198 | 25360 ft | 408 kts | 172° |
| 2026-05-03 21:26 | 29.17869 | -83.53274 | 25124 ft | 406 kts | 172° |
| 2026-05-03 21:26 | 29.15162 | -83.52354 | 24873 ft | 405 kts | 172° |
| 2026-05-03 21:26 | 29.12462 | -83.51440 | 24619 ft | 404 kts | 172° |
| 2026-05-03 21:26 | 29.09773 | -83.50533 | 24370 ft | 403 kts | 172° |
| 2026-05-03 21:27 | 29.07087 | -83.49628 | 24146 ft | 402 kts | 172° |
| 2026-05-03 21:27 | 29.04407 | -83.48726 | 24087 ft | 401 kts | 172° |
| 2026-05-03 21:27 | 29.01727 | -83.47824 | 24102 ft | 402 kts | 172° |
| 2026-05-03 21:27 | 28.99040 | -83.46921 | 24103 ft | 402 kts | 172° |
| 2026-05-03 21:28 | 28.96421 | -83.45839 | 23936 ft | 410 kts | 164° |
| 2026-05-03 21:28 | 28.93826 | -83.44492 | 23689 ft | 409 kts | 163° |
| 2026-05-03 21:28 | 28.91243 | -83.43149 | 23435 ft | 407 kts | 163° |
| 2026-05-03 21:28 | 28.88671 | -83.41813 | 23188 ft | 406 kts | 163° |
| 2026-05-03 21:29 | 28.86108 | -83.40484 | 22937 ft | 404 kts | 163° |
| 2026-05-03 21:29 | 28.83551 | -83.39159 | 22320 ft | 406 kts | 163° |
| 2026-05-03 21:29 | 28.80952 | -83.37822 | 21218 ft | 410 kts | 163° |
| 2026-05-03 21:29 | 28.78391 | -83.36503 | 20143 ft | 408 kts | 163° |
| 2026-05-03 21:30 | 28.75819 | -83.35173 | 19073 ft | 405 kts | 162° |
| 2026-05-03 21:30 | 28.73273 | -83.33853 | 18356 ft | 401 kts | 162° |
| 2026-05-03 21:30 | 28.70745 | -83.32546 | 17823 ft | 398 kts | 162° |
| 2026-05-03 21:30 | 28.68256 | -83.31260 | 17312 ft | 386 kts | 162° |
| 2026-05-03 21:31 | 28.65863 | -83.30019 | 16804 ft | 370 kts | 162° |
| 2026-05-03 21:31 | 28.63560 | -83.28830 | 16340 ft | 360 kts | 162° |
| 2026-05-03 21:31 | 28.61276 | -83.27661 | 15866 ft | 359 kts | 162° |
| 2026-05-03 21:31 | 28.58998 | -83.26498 | 15392 ft | 358 kts | 162° |
| 2026-05-03 21:32 | 28.56728 | -83.25339 | 14933 ft | 357 kts | 162° |
| 2026-05-03 21:32 | 28.54496 | -83.24198 | 14474 ft | 356 kts | 162° |
| 2026-05-03 21:32 | 28.52240 | -83.23042 | 14007 ft | 355 kts | 162° |
| 2026-05-03 21:32 | 28.49994 | -83.21892 | 13538 ft | 353 kts | 161° |
| 2026-05-03 21:33 | 28.47756 | -83.20747 | 13063 ft | 352 kts | 161° |
| 2026-05-03 21:33 | 28.45530 | -83.19609 | 12590 ft | 350 kts | 161° |
| 2026-05-03 21:33 | 28.43314 | -83.18477 | 12107 ft | 349 kts | 161° |
| 2026-05-03 21:33 | 28.41108 | -83.17345 | 11621 ft | 347 kts | 161° |
| 2026-05-03 21:34 | 28.38915 | -83.16220 | 11145 ft | 345 kts | 160° |
| 2026-05-03 21:34 | 28.36731 | -83.15111 | 10660 ft | 343 kts | 160° |
| 2026-05-03 21:34 | 28.34569 | -83.14029 | 10396 ft | 333 kts | 159° |
| 2026-05-03 21:34 | 28.32522 | -83.13009 | 10261 ft | 315 kts | 159° |
| 2026-05-03 21:35 | 28.30570 | -83.12035 | 10051 ft | 300 kts | 159° |
| 2026-05-03 21:35 | 28.28709 | -83.11094 | 10016 ft | 289 kts | 155° |
| 2026-05-03 21:35 | 28.27020 | -83.09863 | 10020 ft | 289 kts | 142° |
| 2026-05-03 21:35 | 28.25496 | -83.08374 | 10009 ft | 289 kts | 141° |
| 2026-05-03 21:36 | 28.23974 | -83.06884 | 10014 ft | 289 kts | 141° |
| 2026-05-03 21:36 | 28.22453 | -83.05395 | 10006 ft | 289 kts | 141° |
| 2026-05-03 21:36 | 28.21024 | -83.03790 | 10008 ft | 291 kts | 129° |
| 2026-05-03 21:36 | 28.19998 | -83.01814 | 10015 ft | 293 kts | 113° |
| 2026-05-03 21:37 | 28.19467 | -82.99587 | 10013 ft | 294 kts | 97° |
| 2026-05-03 21:37 | 28.19329 | -82.97302 | 10019 ft | 295 kts | 94° |
| 2026-05-03 21:37 | 28.19205 | -82.94981 | 10024 ft | 296 kts | 94° |
| 2026-05-03 21:37 | 28.19076 | -82.92653 | 10021 ft | 296 kts | 94° |
| 2026-05-03 21:38 | 28.18945 | -82.90327 | 10013 ft | 296 kts | 94° |
| 2026-05-03 21:38 | 28.18815 | -82.88001 | 10021 ft | 296 kts | 94° |
| 2026-05-03 21:38 | 28.18886 | -82.85672 | 10022 ft | 297 kts | 81° |
| 2026-05-03 21:38 | 28.19189 | -82.83354 | 10006 ft | 298 kts | 83° |
| 2026-05-03 21:39 | 28.19422 | -82.81024 | 10011 ft | 299 kts | 85° |
| 2026-05-03 21:39 | 28.19525 | -82.78680 | 10005 ft | 297 kts | 98° |
| 2026-05-03 21:39 | 28.18890 | -82.76495 | 10014 ft | 292 kts | 124° |
| 2026-05-03 21:39 | 28.17521 | -82.74891 | 10008 ft | 287 kts | 152° |
| 2026-05-03 21:40 | 28.15688 | -82.74101 | 10016 ft | 282 kts | 171° |
| 2026-05-03 21:40 | 28.13764 | -82.73694 | 10014 ft | 282 kts | 173° |
| 2026-05-03 21:40 | 28.11831 | -82.73331 | 9972 ft | 281 kts | 174° |
| 2026-05-03 21:40 | 28.09908 | -82.72977 | 9615 ft | 279 kts | 173° |
| 2026-05-03 21:41 | 28.07993 | -82.72639 | 9262 ft | 278 kts | 173° |
| 2026-05-03 21:41 | 28.06084 | -82.72328 | 8900 ft | 276 kts | 173° |
| 2026-05-03 21:41 | 28.04184 | -82.72048 | 8533 ft | 275 kts | 174° |
| 2026-05-03 21:41 | 28.02284 | -82.71965 | 8159 ft | 273 kts | 182° |
| 2026-05-03 21:42 | 28.00395 | -82.72067 | 7826 ft | 270 kts | 184° |
| 2026-05-03 21:42 | 27.98554 | -82.72195 | 7611 ft | 261 kts | 184° |
| 2026-05-03 21:42 | 27.96776 | -82.72321 | 7281 ft | 258 kts | 184° |
| 2026-05-03 21:42 | 27.94999 | -82.72451 | 7033 ft | 252 kts | 184° |
| 2026-05-03 21:43 | 27.93263 | -82.72583 | 6773 ft | 248 kts | 184° |
| 2026-05-03 21:43 | 27.91542 | -82.72718 | 6526 ft | 246 kts | 184° |
| 2026-05-03 21:43 | 27.89848 | -82.72855 | 6237 ft | 243 kts | 184° |
| 2026-05-03 21:43 | 27.88168 | -82.72996 | 6018 ft | 242 kts | 184° |
| 2026-05-03 21:44 | 27.86485 | -82.73145 | 6005 ft | 244 kts | 184° |
| 2026-05-03 21:44 | 27.84791 | -82.73299 | 6032 ft | 245 kts | 184° |
| 2026-05-03 21:44 | 27.83091 | -82.73450 | 6038 ft | 245 kts | 184° |
| 2026-05-03 21:44 | 27.81409 | -82.73600 | 6004 ft | 245 kts | 184° |
| 2026-05-03 21:45 | 27.79709 | -82.73752 | 6003 ft | 245 kts | 184° |
| 2026-05-03 21:45 | 27.78011 | -82.73906 | 6006 ft | 245 kts | 184° |
| 2026-05-03 21:45 | 27.76327 | -82.74061 | 5776 ft | 243 kts | 184° |
| 2026-05-03 21:45 | 27.74651 | -82.74215 | 5390 ft | 242 kts | 184° |
| 2026-05-03 21:46 | 27.72968 | -82.74374 | 5023 ft | 243 kts | 184° |
| 2026-05-03 21:46 | 27.71286 | -82.74541 | 4720 ft | 242 kts | 184° |
| 2026-05-03 21:46 | 27.69676 | -82.74372 | 4615 ft | 226 kts | 155° |
| 2026-05-03 21:46 | 27.68474 | -82.73345 | 4421 ft | 215 kts | 121° |
| 2026-05-03 21:47 | 27.67862 | -82.71836 | 4132 ft | 212 kts | 106° |
| 2026-05-03 21:47 | 27.67429 | -82.70277 | 3851 ft | 211 kts | 104° |
| 2026-05-03 21:47 | 27.67027 | -82.68694 | 3562 ft | 209 kts | 98° |
| 2026-05-03 21:47 | 27.67111 | -82.67114 | 3284 ft | 201 kts | 67° |
| 2026-05-03 21:48 | 27.67892 | -82.65847 | 3001 ft | 198 kts | 38° |
| 2026-05-03 21:48 | 27.69128 | -82.65216 | 2711 ft | 198 kts | 9° |
| 2026-05-03 21:48 | 27.70509 | -82.65304 | 2382 ft | 202 kts | 354° |
| 2026-05-03 21:48 | 27.71891 | -82.65551 | 2138 ft | 199 kts | 353° |
| 2026-05-03 21:49 | 27.73263 | -82.65792 | 1991 ft | 199 kts | 354° |
| 2026-05-03 21:49 | 27.74623 | -82.66026 | 1980 ft | 198 kts | 354° |
| 2026-05-03 21:49 | 27.75956 | -82.66256 | 1986 ft | 192 kts | 354° |
| 2026-05-03 21:49 | 27.77268 | -82.66481 | 1987 ft | 189 kts | 354° |
| 2026-05-03 21:50 | 27.78560 | -82.66702 | 1990 ft | 188 kts | 354° |
| 2026-05-03 21:50 | 27.79834 | -82.66922 | 1953 ft | 179 kts | 354° |
| 2026-05-03 21:50 | 27.81001 | -82.67123 | 1787 ft | 162 kts | 354° |
| 2026-05-03 21:50 | 27.82075 | -82.67307 | 1628 ft | 153 kts | 354° |
| 2026-05-03 21:51 | 27.83111 | -82.67484 | 1405 ft | 149 kts | 353° |
| 2026-05-03 21:51 | 27.84129 | -82.67659 | 1203 ft | 148 kts | 353° |
| 2026-05-03 21:51 | 27.85145 | -82.67833 | 1005 ft | 146 kts | 352° |
| 2026-05-03 21:51 | 27.86142 | -82.68004 | 809 ft | 145 kts | 352° |
| 2026-05-03 21:52 | 27.87134 | -82.68174 | 618 ft | 144 kts | 351° |
| 2026-05-03 21:52 | 27.88107 | -82.68339 | 427 ft | 143 kts | 352° |
| 2026-05-03 21:52 | 27.89094 | -82.68503 | 225 ft | 143 kts | 351° |
| 2026-05-03 21:52 | 27.90077 | -82.68678 | 36 ft | 142 kts | 351° |
| 2026-05-03 21:53 | 27.90933 | -82.68826 | 22 ft | 101 kts | 351° |
| 2026-05-03 21:53 | 27.91462 | -82.68917 | 21 ft | 52 kts | 351° |
| 2026-05-03 21:53 | 27.91795 | -82.68975 | 23 ft | 45 kts | 351° |
| 2026-05-03 21:53 | 27.92089 | -82.69026 | 23 ft | 40 kts | 351° |
| 2026-05-03 21:54 | 27.92290 | -82.69061 | 22 ft | 22 kts | 348° |
| 2026-05-03 21:54 | 27.92320 | -82.69164 | 23 ft | 10 kts | 249° |
| 2026-05-03 21:54 | 27.92278 | -82.69206 | 25 ft | 7 kts | 202° |
| 2026-05-03 21:54 | 27.92234 | -82.69209 | 24 ft | 6 kts | 175° |
| 2026-05-03 21:55 | 27.92198 | -82.69204 | 24 ft | 5 kts | 173° |
| 2026-05-03 21:55 | 27.92170 | -82.69200 | 24 ft | 4 kts | 171° |
| 2026-05-03 21:55 | 27.92150 | -82.69196 | 24 ft | 3 kts | 171° |
| 2026-05-03 21:55 | 27.92111 | -82.69189 | 24 ft | 12 kts | 171° |
| 2026-05-03 21:56 | 27.92011 | -82.69172 | 25 ft | 15 kts | 171° |
| 2026-05-03 21:56 | 27.91915 | -82.69155 | 24 ft | 13 kts | 171° |
| 2026-05-03 21:56 | 27.91832 | -82.69140 | 24 ft | 11 kts | 171° |
| 2026-05-03 21:56 | 27.91761 | -82.69127 | 26 ft | 10 kts | 173° |
| 2026-05-03 21:57 | 27.91659 | -82.69110 | 24 ft | 22 kts | 171° |
| 2026-05-03 21:57 | 27.91487 | -82.69079 | 24 ft | 26 kts | 173° |
| 2026-05-03 21:57 | 27.91331 | -82.69052 | 24 ft | 22 kts | 172° |
| 2026-05-03 21:57 | 27.91178 | -82.69026 | 24 ft | 23 kts | 171° |
| 2026-05-03 21:58 | 27.91034 | -82.69001 | 24 ft | 20 kts | 171° |
| 2026-05-03 21:58 | 27.90905 | -82.68978 | 25 ft | 16 kts | 171° |
| 2026-05-03 21:58 | 27.90822 | -82.68968 | 24 ft | 8 kts | 163° |
| 2026-05-03 21:58 | 27.90780 | -82.68986 | 25 ft | 6 kts | 226° |
| 2026-05-03 21:59 | 27.90753 | -82.69017 | 25 ft | 5 kts | 224° |
| 2026-05-03 21:59 | 27.90737 | -82.69035 | 24 ft | 2 kts | 225° |